createdAt,value
2022-11-14T00:01:18.172Z,7.70
2022-11-14T00:03:44.966Z,7.70
2022-11-14T00:06:11.946Z,7.70
2022-11-14T00:08:38.740Z,7.60
2022-11-14T00:11:09.617Z,7.70
2022-11-14T00:13:36.528Z,7.70
2022-11-14T00:16:03.548Z,7.60
2022-11-14T00:18:30.814Z,7.60
2022-11-14T00:20:57.977Z,7.50
2022-11-14T00:23:24.802Z,7.50
2022-11-14T00:25:51.598Z,7.50
2022-11-14T00:28:18.731Z,7.50
2022-11-14T00:30:48.929Z,7.50
2022-11-14T00:33:20.025Z,7.50
2022-11-14T00:35:54.164Z,7.50
2022-11-14T00:38:21.220Z,7.50
2022-11-14T00:40:48.128Z,7.40
2022-11-14T00:43:14.966Z,7.40
2022-11-14T00:45:43.206Z,7.40
2022-11-14T00:48:10.025Z,7.40
2022-11-14T00:50:38.111Z,7.40
2022-11-14T00:53:04.967Z,7.30
2022-11-14T00:55:31.834Z,7.30
2022-11-14T00:57:58.713Z,7.30
2022-11-14T01:00:25.590Z,7.30
2022-11-14T01:02:56.824Z,7.30
2022-11-14T01:05:26.898Z,7.30
2022-11-14T01:07:54.156Z,7.30
2022-11-14T01:10:21.171Z,7.30
2022-11-14T01:12:47.962Z,7.30
2022-11-14T01:15:14.803Z,7.30
2022-11-14T01:17:41.791Z,7.40
2022-11-14T01:20:08.834Z,7.40
2022-11-14T01:22:35.754Z,7.30
2022-11-14T01:25:02.628Z,7.30
2022-11-14T01:27:32.612Z,7.40
2022-11-14T01:29:59.390Z,7.40
2022-11-14T01:32:26.637Z,7.40
2022-11-14T01:34:53.420Z,7.40
2022-11-14T01:37:20.265Z,7.40
2022-11-14T01:39:47.018Z,7.40
2022-11-14T01:42:13.900Z,7.40
2022-11-14T01:44:50.839Z,7.40
2022-11-14T01:47:20.201Z,7.30
2022-11-14T01:49:48.733Z,7.30
2022-11-14T01:52:20.498Z,7.40
2022-11-14T01:54:49.684Z,7.40
2022-11-14T01:57:20.332Z,7.40
2022-11-14T01:59:49.985Z,7.30
2022-11-14T02:02:18.338Z,7.30
2022-11-14T02:04:47.269Z,7.30
2022-11-14T02:07:15.183Z,7.30
2022-11-14T02:09:44.587Z,7.30
2022-11-14T02:12:12.959Z,7.20
2022-11-14T02:14:40.529Z,7.30
2022-11-14T02:17:28.403Z,7.30
2022-11-14T02:19:55.544Z,7.30
2022-11-14T02:22:22.404Z,7.30
2022-11-14T02:24:49.298Z,7.30
2022-11-14T02:27:16.614Z,7.30
2022-11-14T02:29:43.457Z,7.40
2022-11-14T02:32:11.089Z,7.30
2022-11-14T02:34:38.572Z,7.30
2022-11-14T02:37:05.977Z,7.20
2022-11-14T02:39:32.836Z,7.30
2022-11-14T02:41:59.718Z,7.30
2022-11-14T02:44:26.594Z,7.30
2022-11-14T02:46:53.380Z,7.30
2022-11-14T02:49:20.509Z,7.30
2022-11-14T02:51:47.306Z,7.30
2022-11-14T02:54:14.277Z,7.40
2022-11-14T02:56:41.149Z,7.30
2022-11-14T02:59:07.920Z,7.30
2022-11-14T03:01:34.772Z,7.20
2022-11-14T03:04:01.662Z,7.30
2022-11-14T03:06:28.545Z,7.20
2022-11-14T03:08:55.327Z,7.20
2022-11-14T03:11:22.411Z,7.20
2022-11-14T03:13:49.255Z,7.20
2022-11-14T03:16:16.148Z,7.20
2022-11-14T03:18:42.964Z,7.20
2022-11-14T03:21:11.526Z,7.20
2022-11-14T03:23:38.322Z,7.20
2022-11-14T03:26:06.497Z,7.20
2022-11-14T03:28:33.438Z,7.20
2022-11-14T03:31:00.216Z,7.20
2022-11-14T03:33:27.293Z,7.20
2022-11-14T03:35:54.265Z,7.20
2022-11-14T03:38:24.175Z,7.20
2022-11-14T03:40:51.168Z,7.20
2022-11-14T03:43:18.706Z,7.20
2022-11-14T03:45:45.593Z,7.10
2022-11-14T03:48:12.673Z,7.20
2022-11-14T03:50:40.205Z,7.10
2022-11-14T03:53:06.996Z,7.10
2022-11-14T03:55:33.899Z,7.10
2022-11-14T03:58:00.900Z,7.10
2022-11-14T04:00:28.979Z,7.20
2022-11-14T04:02:56.414Z,7.20
2022-11-14T04:05:23.800Z,7.10
2022-11-14T04:07:50.749Z,7.20
2022-11-14T04:10:18.298Z,7.20
2022-11-14T04:12:49.133Z,7.10
2022-11-14T04:15:16.429Z,7.10
2022-11-14T04:17:43.487Z,7.10
2022-11-14T04:20:10.648Z,7.10
2022-11-14T04:22:37.714Z,7.10
2022-11-14T04:25:04.942Z,7.10
2022-11-14T04:27:31.848Z,7.10
2022-11-14T04:29:58.702Z,7.10
2022-11-14T04:32:25.526Z,7.20
2022-11-14T04:34:52.457Z,7.10
2022-11-14T04:37:19.253Z,7.10
2022-11-14T04:39:46.081Z,7.10
2022-11-14T04:42:12.883Z,7.10
2022-11-14T04:44:39.706Z,7.10
2022-11-14T04:47:06.597Z,7.10
2022-11-14T04:49:33.469Z,7.10
2022-11-14T04:52:00.270Z,7.10
2022-11-14T04:54:27.315Z,7.10
2022-11-14T04:56:54.158Z,7.00
2022-11-14T04:59:21.383Z,7.00
2022-11-14T05:01:48.421Z,7.00
2022-11-14T05:04:15.291Z,7.00
2022-11-14T05:06:42.240Z,7.00
2022-11-14T05:09:09.946Z,7.10
2022-11-14T05:11:36.799Z,7.10
2022-11-14T05:14:03.696Z,7.00
2022-11-14T05:16:30.612Z,7.00
2022-11-14T05:18:57.456Z,7.00
2022-11-14T05:21:24.528Z,7.00
2022-11-14T05:23:51.336Z,7.00
2022-11-14T05:26:18.549Z,7.10
2022-11-14T05:28:45.543Z,7.00
2022-11-14T05:31:13.808Z,7.10
2022-11-14T05:33:40.684Z,7.00
2022-11-14T05:36:08.717Z,7.00
2022-11-14T05:38:35.852Z,7.00
2022-11-14T05:41:06.511Z,7.10
2022-11-14T05:43:33.573Z,7.00
2022-11-14T05:46:01.178Z,7.00
2022-11-14T05:48:28.409Z,7.00
2022-11-14T05:50:55.762Z,7.00
2022-11-14T05:53:22.658Z,7.00
2022-11-14T05:55:49.513Z,7.00
2022-11-14T05:58:16.586Z,7.00
2022-11-14T06:00:49.806Z,7.00
2022-11-14T06:03:20.422Z,7.10
2022-11-14T06:05:47.388Z,7.10
2022-11-14T06:08:14.338Z,7.10
2022-11-14T06:10:41.330Z,7.20
2022-11-14T06:13:08.133Z,7.20
2022-11-14T06:15:34.955Z,7.20
2022-11-14T06:18:01.764Z,7.20
2022-11-14T06:20:28.642Z,7.20
2022-11-14T06:22:55.480Z,7.30
2022-11-14T06:25:22.417Z,7.30
2022-11-14T06:27:49.240Z,7.20
2022-11-14T06:30:16.175Z,7.20
2022-11-14T06:32:43.026Z,7.20
2022-11-14T06:35:09.865Z,7.20
2022-11-14T06:37:37.446Z,7.20
2022-11-14T06:40:04.558Z,7.20
2022-11-14T06:42:31.420Z,7.20
2022-11-14T06:44:58.202Z,7.20
2022-11-14T06:47:24.984Z,7.20
2022-11-14T06:49:51.819Z,7.20
2022-11-14T06:52:18.637Z,7.10
2022-11-14T06:54:45.495Z,7.20
2022-11-14T06:57:12.355Z,7.20
2022-11-14T06:59:39.214Z,7.10
2022-11-14T07:02:06.335Z,7.10
2022-11-14T07:04:33.146Z,7.10
2022-11-14T07:07:00.199Z,7.10
2022-11-14T07:09:27.113Z,7.20
2022-11-14T07:11:53.859Z,7.20
2022-11-14T07:14:21.206Z,7.20
2022-11-14T07:16:48.141Z,7.20
2022-11-14T07:19:15.276Z,7.20
2022-11-14T07:21:42.153Z,7.30
2022-11-14T07:24:08.959Z,7.30
2022-11-14T07:26:35.942Z,7.40
2022-11-14T07:29:03.124Z,7.30
2022-11-14T07:31:30.163Z,7.40
2022-11-14T07:33:56.956Z,7.40
2022-11-14T07:36:24.067Z,7.40
2022-11-14T07:38:50.888Z,7.40
2022-11-14T07:41:18.277Z,7.50
2022-11-14T07:43:45.455Z,7.50
2022-11-14T07:46:13.442Z,7.40
2022-11-14T07:48:40.240Z,7.40
2022-11-14T07:51:08.000Z,7.40
2022-11-14T07:53:34.844Z,7.50
2022-11-14T07:56:05.899Z,7.50
2022-11-14T07:58:34.843Z,7.50
2022-11-14T08:01:02.897Z,7.50
2022-11-14T08:03:29.757Z,7.60
2022-11-14T08:06:06.769Z,7.60
2022-11-14T08:08:33.955Z,7.60
2022-11-14T08:11:01.221Z,7.60
2022-11-14T08:13:33.098Z,7.60
2022-11-14T08:16:07.803Z,7.70
2022-11-14T08:18:37.771Z,7.70
2022-11-14T08:21:05.537Z,7.70
2022-11-14T08:23:32.343Z,7.70
2022-11-14T08:26:00.032Z,7.70
2022-11-14T08:28:27.173Z,7.80
2022-11-14T08:30:58.694Z,7.80
2022-11-14T08:33:25.457Z,7.80
2022-11-14T08:35:52.285Z,7.80
2022-11-14T08:38:19.146Z,7.80
2022-11-14T08:40:45.930Z,7.80
2022-11-14T08:43:12.927Z,7.80
2022-11-14T08:45:39.750Z,7.70
2022-11-14T08:48:06.572Z,7.80
2022-11-14T08:50:33.337Z,7.80
2022-11-14T08:53:00.332Z,7.80
2022-11-14T08:55:27.312Z,7.90
2022-11-14T08:57:54.540Z,7.90
2022-11-14T09:00:21.631Z,8.00
2022-11-14T09:02:48.531Z,8.00
2022-11-14T09:05:15.426Z,8.00
2022-11-14T09:07:42.429Z,8.00
2022-11-14T09:10:09.617Z,8.10
2022-11-14T09:12:36.442Z,8.10
2022-11-14T09:15:03.310Z,8.10
2022-11-14T09:17:30.127Z,8.10
2022-11-14T09:19:57.122Z,8.20
2022-11-14T09:22:24.020Z,8.20
2022-11-14T09:24:52.148Z,8.20
2022-11-14T09:27:19.080Z,8.20
2022-11-14T09:29:45.907Z,8.20
2022-11-14T09:32:12.772Z,8.20
2022-11-14T09:34:43.166Z,8.20
2022-11-14T09:37:10.056Z,8.20
2022-11-14T09:39:40.585Z,8.10
2022-11-14T09:42:17.141Z,8.20
2022-11-14T09:44:44.358Z,8.20
2022-11-14T09:47:20.227Z,8.20
2022-11-14T09:49:49.468Z,8.20
2022-11-14T09:52:22.357Z,8.20
2022-11-14T09:54:52.198Z,8.20
2022-11-14T09:57:20.683Z,8.20
2022-11-14T09:59:47.951Z,8.20
2022-11-14T10:02:22.067Z,8.20
2022-11-14T10:04:48.907Z,8.20
2022-11-14T10:07:25.548Z,8.30
2022-11-14T10:10:08.140Z,8.30
2022-11-14T10:12:43.630Z,8.40
2022-11-14T10:15:36.618Z,8.30
2022-11-14T10:18:21.981Z,8.30
2022-11-14T10:20:53.147Z,8.30
2022-11-14T10:23:35.311Z,8.30
2022-11-14T10:26:11.056Z,8.30
2022-11-14T10:28:44.919Z,8.30
2022-11-14T10:31:19.879Z,8.40
2022-11-14T10:33:58.902Z,8.40
2022-11-14T10:36:25.627Z,8.50
2022-11-14T10:39:05.532Z,8.50
2022-11-14T10:41:55.993Z,8.40
2022-11-14T10:44:23.111Z,8.50
2022-11-14T10:46:53.988Z,8.50
2022-11-14T10:49:22.119Z,8.60
2022-11-14T10:52:00.259Z,8.70
2022-11-14T10:54:36.980Z,8.70
2022-11-14T10:57:03.965Z,8.60
2022-11-14T10:59:30.798Z,8.60
2022-11-14T11:01:58.608Z,8.70
2022-11-14T11:04:29.776Z,8.70
2022-11-14T11:06:57.975Z,8.70
2022-11-14T11:09:46.004Z,8.70
2022-11-14T11:12:17.952Z,8.70
2022-11-14T11:14:48.987Z,8.70
2022-11-14T11:17:18.704Z,8.70
2022-11-14T11:19:47.417Z,8.70
2022-11-14T11:22:23.424Z,8.80
2022-11-14T11:24:50.356Z,8.80
2022-11-14T11:27:25.562Z,8.80
2022-11-14T11:30:03.937Z,8.70
2022-11-14T11:32:30.864Z,8.70
2022-11-14T11:34:58.913Z,8.70
2022-11-14T11:40:04.547Z,8.80
2022-11-14T11:43:23.652Z,8.90
2022-11-14T11:45:22.691Z,8.80
2022-11-14T11:47:54.661Z,8.90
2022-11-14T11:50:22.306Z,8.90
2022-11-14T11:53:08.260Z,8.90
2022-11-14T11:55:40.176Z,9.00
2022-11-14T11:58:30.399Z,9.00
2022-11-14T12:00:57.276Z,9.00
2022-11-14T12:03:24.949Z,9.10
2022-11-14T12:05:54.704Z,9.10
2022-11-14T12:08:31.111Z,9.10
2022-11-14T12:10:58.274Z,9.20
2022-11-14T12:13:51.121Z,9.20
2022-11-14T12:16:47.830Z,9.20
2022-11-14T12:19:41.200Z,9.30
2022-11-14T12:22:11.018Z,9.20
2022-11-14T12:24:37.800Z,9.30
2022-11-14T12:27:14.885Z,9.20
2022-11-14T12:29:44.498Z,9.20
2022-11-14T12:32:14.544Z,9.30
2022-11-14T12:34:46.383Z,9.30
2022-11-14T12:37:16.114Z,9.30
2022-11-14T12:39:54.597Z,9.20
2022-11-14T12:42:21.845Z,9.20
2022-11-14T12:44:48.752Z,9.20
2022-11-14T12:47:17.135Z,9.10
2022-11-14T12:49:52.891Z,9.10
2022-11-14T12:52:38.531Z,9.00
2022-11-14T12:55:05.519Z,9.00
2022-11-14T12:57:55.665Z,9.20
2022-11-14T13:00:22.681Z,9.10
2022-11-14T13:03:07.872Z,9.10
2022-11-14T13:05:40.665Z,9.10
2022-11-14T13:08:16.800Z,9.10
2022-11-14T13:10:43.641Z,9.20
2022-11-14T13:13:34.078Z,9.10
2022-11-14T13:16:20.852Z,9.10
2022-11-14T13:19:09.535Z,9.10
2022-11-14T13:21:48.794Z,9.10
2022-11-14T13:24:19.394Z,9.10
2022-11-14T13:26:47.515Z,9.10
2022-11-14T13:29:33.231Z,9.10
2022-11-14T13:31:59.989Z,9.10
2022-11-14T13:34:29.785Z,9.10
2022-11-14T13:37:15.412Z,9.10
2022-11-14T13:40:02.900Z,9.20
2022-11-14T13:42:38.113Z,9.10
2022-11-14T13:45:23.527Z,9.10
2022-11-14T13:48:08.809Z,9.20
2022-11-14T13:50:40.601Z,9.20
2022-11-14T13:53:14.868Z,9.20
2022-11-14T13:55:47.760Z,9.10
2022-11-14T13:58:37.506Z,9.20
2022-11-14T14:01:23.249Z,9.10
2022-11-14T14:04:08.572Z,9.10
2022-11-14T14:06:42.568Z,9.10
2022-11-14T14:09:41.553Z,9.20
2022-11-14T14:12:26.876Z,9.20
2022-11-14T14:14:59.726Z,9.20
2022-11-14T14:17:32.223Z,9.20
2022-11-14T14:20:05.690Z,9.10
2022-11-14T14:22:47.536Z,9.10
2022-11-14T14:25:17.379Z,9.10
2022-11-14T14:27:52.913Z,9.10
2022-11-14T14:30:20.043Z,9.10
2022-11-14T14:33:05.441Z,9.10
2022-11-14T14:35:39.077Z,9.10
2022-11-14T14:38:11.453Z,9.10
2022-11-14T14:40:39.354Z,9.10
2022-11-14T14:43:06.636Z,9.10
2022-11-14T14:45:44.603Z,9.10
2022-11-14T14:48:13.541Z,9.10
2022-11-14T14:50:41.603Z,9.10
2022-11-14T14:53:18.851Z,9.10
2022-11-14T14:55:51.706Z,9.10
2022-11-14T14:58:22.663Z,9.10
2022-11-14T15:00:54.427Z,9.10
2022-11-14T15:03:21.822Z,9.10
2022-11-14T15:05:48.858Z,9.10
2022-11-14T15:08:16.571Z,9.10
2022-11-14T15:10:44.196Z,9.10
2022-11-14T15:13:14.346Z,9.10
2022-11-14T15:15:41.455Z,9.10
2022-11-14T15:18:08.998Z,9.10
2022-11-14T15:20:35.777Z,9.10
2022-11-14T15:23:08.690Z,9.10
2022-11-14T15:25:35.900Z,9.10
2022-11-14T15:28:03.659Z,9.10
2022-11-14T15:30:32.192Z,9.10
2022-11-14T15:32:59.883Z,9.10
2022-11-14T15:35:31.916Z,9.20
2022-11-14T15:38:21.815Z,9.10
2022-11-14T15:41:07.080Z,9.10
2022-11-14T15:43:38.062Z,9.10
2022-11-14T15:46:05.055Z,9.10
2022-11-14T15:48:32.119Z,9.00
2022-11-14T15:50:59.149Z,9.00
2022-11-14T15:53:27.887Z,9.00
2022-11-14T15:55:56.921Z,9.10
2022-11-14T15:58:28.632Z,9.10
2022-11-14T16:00:56.155Z,9.10
2022-11-14T16:03:23.456Z,9.10
2022-11-14T16:05:50.226Z,9.10
2022-11-14T16:08:17.055Z,9.00
2022-11-14T16:10:44.065Z,9.00
2022-11-14T16:13:11.322Z,9.00
2022-11-14T16:15:38.423Z,8.90
2022-11-14T16:18:06.057Z,9.00
2022-11-14T16:20:37.996Z,9.00
2022-11-14T16:23:05.581Z,9.00
2022-11-14T16:25:33.035Z,9.00
2022-11-14T16:27:59.935Z,9.00
2022-11-14T16:30:29.954Z,9.10
2022-11-14T16:32:56.854Z,9.00
2022-11-14T16:35:24.924Z,9.00
2022-11-14T16:37:52.031Z,9.00
2022-11-14T16:40:20.766Z,9.00
2022-11-14T16:42:47.791Z,9.00
2022-11-14T16:45:15.076Z,9.00
2022-11-14T16:47:42.071Z,9.00
2022-11-14T16:50:09.320Z,9.00
2022-11-14T16:52:37.316Z,9.00
2022-11-14T16:55:04.172Z,9.00
2022-11-14T16:57:30.960Z,9.00
2022-11-14T16:59:58.528Z,9.00
2022-11-14T17:02:25.451Z,9.00
2022-11-14T17:04:52.304Z,9.00
2022-11-14T17:07:22.851Z,9.00
2022-11-14T17:09:49.980Z,9.00
2022-11-14T17:12:16.799Z,9.00
2022-11-14T17:14:43.645Z,9.10
2022-11-14T17:17:10.502Z,9.10
2022-11-14T17:19:39.049Z,9.00
2022-11-14T17:22:05.885Z,9.00
2022-11-14T17:24:32.731Z,8.90
2022-11-14T17:26:59.563Z,9.00
2022-11-14T17:29:26.338Z,8.90
2022-11-14T17:31:53.220Z,8.90
2022-11-14T17:34:20.139Z,8.90
2022-11-14T17:36:46.949Z,9.00
2022-11-14T17:39:14.339Z,9.00
2022-11-14T17:41:41.210Z,9.00
2022-11-14T17:44:09.868Z,9.00
2022-11-14T17:46:36.764Z,9.00
2022-11-14T17:49:03.779Z,9.00
2022-11-14T17:51:30.667Z,9.00
2022-11-14T17:53:57.627Z,9.00
2022-11-14T17:56:25.520Z,9.00
2022-11-14T17:58:53.223Z,9.00
2022-11-14T18:01:23.975Z,8.90
2022-11-14T18:03:50.838Z,9.00
2022-11-14T18:06:22.143Z,8.90
2022-11-14T18:08:48.994Z,8.90
2022-11-14T18:11:17.114Z,9.00
2022-11-14T18:13:44.072Z,8.90
2022-11-14T18:16:12.791Z,8.90
2022-11-14T18:18:39.726Z,9.00
2022-11-14T18:21:11.261Z,9.00
2022-11-14T18:23:38.808Z,9.00
2022-11-14T18:26:09.255Z,8.90
2022-11-14T18:28:36.116Z,8.90
2022-11-14T18:31:04.698Z,8.80
2022-11-14T18:33:31.536Z,8.80
2022-11-14T18:35:58.953Z,8.80
2022-11-14T18:38:25.925Z,8.70
2022-11-14T18:40:57.051Z,8.70
2022-11-14T18:43:24.623Z,8.70
2022-11-14T18:45:51.666Z,8.60
2022-11-14T18:48:18.665Z,8.60
2022-11-14T18:50:45.578Z,8.60
2022-11-14T18:53:12.407Z,8.60
2022-11-14T18:55:42.205Z,8.60
2022-11-14T18:58:09.287Z,8.60
2022-11-14T19:00:36.298Z,8.60
2022-11-14T19:03:06.192Z,8.60
2022-11-14T19:05:35.390Z,8.60
2022-11-14T19:08:02.186Z,8.60
2022-11-14T19:10:29.010Z,8.70
2022-11-14T19:12:55.878Z,8.60
2022-11-14T19:15:22.689Z,8.60
2022-11-14T19:17:49.633Z,8.60
2022-11-14T19:20:16.855Z,8.60
2022-11-14T19:22:45.141Z,8.60
2022-11-14T19:25:12.062Z,8.60
2022-11-14T19:27:40.057Z,8.60
2022-11-14T19:30:07.150Z,8.70
2022-11-14T19:32:34.486Z,8.60
2022-11-14T19:35:01.293Z,8.70
2022-11-14T19:37:28.667Z,8.60
2022-11-14T19:39:56.613Z,8.60
2022-11-14T19:42:23.543Z,8.60
2022-11-14T19:44:50.379Z,8.60
2022-11-14T19:47:17.264Z,8.60
2022-11-14T19:49:44.304Z,8.60
2022-11-14T19:52:11.727Z,8.50
2022-11-14T19:54:38.769Z,8.50
2022-11-14T19:57:05.586Z,8.40
2022-11-14T19:59:32.444Z,8.50
2022-11-14T20:01:59.477Z,8.40
2022-11-14T20:04:30.231Z,8.30
2022-11-14T20:06:59.256Z,8.40
2022-11-14T20:09:26.110Z,8.40
2022-11-14T20:11:53.050Z,8.50
2022-11-14T20:14:19.974Z,8.50
2022-11-14T20:16:46.882Z,8.50
2022-11-14T20:19:14.264Z,8.50
2022-11-14T20:21:41.106Z,8.40
2022-11-14T20:24:10.099Z,8.40
2022-11-14T20:26:36.960Z,8.40
2022-11-14T20:29:06.956Z,8.40
2022-11-14T20:31:33.921Z,8.40
2022-11-14T20:34:00.740Z,8.40
2022-11-14T20:36:39.016Z,8.40
2022-11-14T20:39:14.670Z,8.30
2022-11-14T20:41:41.573Z,8.30
2022-11-14T20:44:08.495Z,8.30
2022-11-14T20:46:35.470Z,8.30
2022-11-14T20:49:04.343Z,8.30
2022-11-14T20:51:31.344Z,8.20
2022-11-14T20:53:58.177Z,8.20
2022-11-14T20:56:25.202Z,8.20
2022-11-14T20:58:52.251Z,8.20
2022-11-14T21:01:19.456Z,8.20
2022-11-14T21:03:47.158Z,8.30
2022-11-14T21:06:14.446Z,8.20
2022-11-14T21:08:41.651Z,8.30
2022-11-14T21:11:10.889Z,8.30
2022-11-14T21:13:57.048Z,8.30
2022-11-14T21:16:25.662Z,8.30
2022-11-14T21:18:54.106Z,8.30
2022-11-14T21:21:23.713Z,8.30
2022-11-14T21:23:51.016Z,8.30
2022-11-14T21:26:19.705Z,8.30
2022-11-14T21:28:48.259Z,8.20
2022-11-14T21:31:19.713Z,8.20
2022-11-14T21:33:47.036Z,8.30
2022-11-14T21:36:43.165Z,8.20
2022-11-14T21:39:01.276Z,8.20
2022-11-14T21:41:29.338Z,8.20
2022-11-14T21:43:57.270Z,8.20
2022-11-14T21:46:24.208Z,8.20
2022-11-14T21:48:51.389Z,8.30
2022-11-14T21:51:19.704Z,8.30
2022-11-14T21:53:47.249Z,8.20
2022-11-14T21:56:17.220Z,8.20
2022-11-14T21:58:44.226Z,8.20
2022-11-14T22:01:15.609Z,8.20
2022-11-14T22:04:01.399Z,8.30
2022-11-14T22:06:28.482Z,8.30
2022-11-14T22:08:55.540Z,8.30
2022-11-14T22:11:22.571Z,8.20
2022-11-14T22:13:49.830Z,8.10
2022-11-14T22:16:19.587Z,8.20
2022-11-14T22:18:52.005Z,8.20
2022-11-14T22:21:18.806Z,8.20
2022-11-14T22:23:45.598Z,8.20
2022-11-14T22:26:12.599Z,8.20
2022-11-14T22:28:39.921Z,8.20
2022-11-14T22:31:08.073Z,8.20
2022-11-14T22:33:36.067Z,8.20
2022-11-14T22:36:07.168Z,8.20
2022-11-14T22:38:35.331Z,8.20
2022-11-14T22:41:02.764Z,8.20
2022-11-14T22:43:30.673Z,8.30
2022-11-14T22:45:59.661Z,8.30
2022-11-14T22:48:27.325Z,8.20
2022-11-14T22:51:08.079Z,8.20
2022-11-14T22:53:35.911Z,8.30
2022-11-14T22:56:03.555Z,8.40
2022-11-14T22:58:31.496Z,8.40
2022-11-14T23:00:58.332Z,8.30
2022-11-14T23:03:25.221Z,8.30
2022-11-14T23:05:52.075Z,8.20
2022-11-14T23:08:20.183Z,8.20
2022-11-14T23:10:48.001Z,8.20
2022-11-14T23:13:15.133Z,8.20
2022-11-14T23:15:46.585Z,8.30
2022-11-14T23:18:13.770Z,8.30
2022-11-14T23:20:40.607Z,8.30
2022-11-14T23:23:07.417Z,8.30
2022-11-14T23:25:35.358Z,8.30
2022-11-14T23:28:02.783Z,8.30
2022-11-14T23:30:31.688Z,8.30
2022-11-14T23:32:58.533Z,8.30
2022-11-14T23:35:25.340Z,8.30
2022-11-14T23:37:52.193Z,8.30
2022-11-14T23:40:19.195Z,8.30
2022-11-14T23:42:46.073Z,8.20
2022-11-14T23:45:12.886Z,8.20
2022-11-14T23:47:39.700Z,8.20
2022-11-14T23:50:06.656Z,8.20
2022-11-14T23:52:33.448Z,8.30
2022-11-14T23:55:01.149Z,8.40
2022-11-14T23:57:28.016Z,8.30
2022-11-14T23:59:55.066Z,8.30
